Flight Briefing for CPX218

Departure Arrival
Chicago/Rockford International Airport (KRFD)
Click to view FAA NOTAMS
March Air Reserve Base (KRIV)
Click to view FAA NOTAMS
Departure Time Arrival Time
0030 UTC 0415 UTC
Aircraft Distance
B767-300BDSF 1417nm
Departure METAR Arrival METAR
KRFD 252254Z 06007KT 10SM FEW250 07/M14 A3033 RMK AO2 SLP276 T00671139 KRIV 252258Z AUTO 33007KT 10SM CLR 24/07 A3005 RMK AO2 SLP171 T02390071
Suggested Route
PLL IOW J192 PWE GCK J96 GUP J134 TRM ARKOE1


View recent IFR Routes data
Notes



Charts and Procedures

Charts for KRFD
No chart available
Charts for KRIV
No chart available

Windy.com Weather Map